Aviation Digital Data Service (ADDS)

Output produced by TAFs form (0751 UTC 23 April 2018)
found at http://aviationweather.gov/adds/tafs/
 
METAR text: RJNK 230700Z 03007KT 8000 FEW180 BKN230 17/11 Q1016
Conditions at: RJNK (KOMATSU (CIV/JAS, JP) observed 0700 UTC 23 April 2018
Temperature: 17.0°C (63°F)
Dewpoint: 11.0°C (52°F) [RH = 68%]
Pressure (altimeter): 30.00 inches Hg (1016.0 mb)
Winds: from the NNE (30 degrees) at 8 MPH (7 knots; 3.6 m/s)
Visibility: 5 miles (8 km)
Ceiling: 23000 feet AGL
Clouds: few clouds at 18000 feet AGL
broken clouds at 23000 feet AGL
Weather: no significant weather observed at this time

Forecast for: RJNK (KOMATSU (CIV/JAS, JP)
Text: TAF RJNK 230512Z 2306/2412 01008KT 8000 FEW030
Forecast period: 0600 UTC 23 April 2018 to 0000 UTC 24 April 2018
Forecast type: FROM: standard forecast or significant change
Winds: from the N (10 degrees) at 9 MPH (8 knots; 4.2 m/s)
Visibility: 5 miles (8 km)
Clouds: few clouds at 3000 feet AGL
Weather: no significant weather forecast for this period
Forecast for: RJNK (KOMATSU (CIV/JAS, JP)
Text: TAF RJNK 230512Z 2306/2412 01008KT 8000 FEW030
Forecast period: 0600 UTC 23 April 2018 to 0000 UTC 24 April 2018
Forecast type: FROM: standard forecast or significant change
Winds: from the N (10 degrees) at 9 MPH (8 knots; 4.2 m/s)
Visibility: 5 miles (8 km)
Clouds: few clouds at 3000 feet AGL
Weather: no significant weather forecast for this period
Forecast for: RJNK (KOMATSU (CIV/JAS, JP)
Text: TAF RJNK 230512Z 2306/2412 01008KT 8000 FEW030
Forecast period: 1400 to 2100 UTC 23 April 2018
Forecast type: TEMPORARY: The following changes expected for less than half the time period
Visibility: 1.86 miles (2.99 km)
Ceiling: 800 feet AGL
Clouds: few clouds at 500 feet AGL
broken clouds at 800 feet AGL
Weather: RA BR  (rain, mist)
Forecast for: RJNK (KOMATSU (CIV/JAS, JP)
Text: TAF RJNK 230512Z 2306/2412 01008KT 8000 FEW030
Forecast period: 1400 to 2100 UTC 23 April 2018
Forecast type: TEMPORARY: The following changes expected for less than half the time period
Visibility: 1.86 miles (2.99 km)
Ceiling: 800 feet AGL
Clouds: few clouds at 500 feet AGL
broken clouds at 800 feet AGL
Weather: RA BR  (rain, mist)
Forecast for: RJNK (KOMATSU (CIV/JAS, JP)
Text: TAF RJNK 230512Z 2306/2412 01008KT 8000 FEW030
Forecast period: 0000 to 1200 UTC 24 April 2018
Forecast type: BECOMING: Conditions expected to become as follows by 0300 UTC 24 April 2018
Winds: from the W (270 degrees) at 9 MPH (8 knots; 4.2 m/s)
Visibility: 5 miles (8 km)
Clouds: few clouds at 3000 feet AGL
Weather: no significant weather forecast for this period
Forecast for: RJNK (KOMATSU (CIV/JAS, JP)
Text: TAF RJNK 230512Z 2306/2412 01008KT 8000 FEW030
Forecast period: 0000 to 1200 UTC 24 April 2018
Forecast type: BECOMING: Conditions expected to become as follows by 0300 UTC 24 April 2018
Winds: from the W (270 degrees) at 9 MPH (8 knots; 4.2 m/s)
Visibility: 5 miles (8 km)
Clouds: few clouds at 3000 feet AGL
Weather: no significant weather forecast for this period
Forecast for: RJNK (KOMATSU (CIV/JAS, JP)
Text: TAF RJNK 230512Z 2306/2412 01008KT 8000 FEW030
Forecast period: 0300 to 0900 UTC 24 April 2018
Forecast type: TEMPORARY: The following changes expected for less than half the time period
Visibility: 1.86 miles (2.99 km)
Ceiling: 500 feet AGL
Clouds: few clouds at 300 feet AGL
broken clouds at 500 feet AGL
Weather: RA BR  (rain, mist)
Forecast for: RJNK (KOMATSU (CIV/JAS, JP)
Text: TAF RJNK 230512Z 2306/2412 01008KT 8000 FEW030
Forecast period: 0300 to 0900 UTC 24 April 2018
Forecast type: TEMPORARY: The following changes expected for less than half the time period
Visibility: 1.86 miles (2.99 km)
Ceiling: 500 feet AGL
Clouds: few clouds at 300 feet AGL
broken clouds at 500 feet AGL
Weather: RA BR  (rain, mist)